EBDT

Schaffen Airport

Diest, Belgium
METAR EBDT 140025Z AUTO 03003KT 6000 NCD M02/M03 Q1021 WHT
Observed Flight Rules
Dec-14 @ 00:25 UTC (24 minutes ago) Marginal Visual Flight Rules
Wind Visibility Clouds
30° at 3 knots 6,003 meters
  • Clear skies
Temperatures Readings
Current -2°C / 28°F
Dewpoint -3°C / 27°F
Humidity 93%
Altimeter 30.15" Hg
Pressure 1021 hPa
Elevation 54
METAR EBDT 140025Z AUTO 03003KT 6000 NCD M02/M03 Q1021 WHT
Observed Flight Rules
Dec-14 @ 00:25 UTC
(24 minutes ago)
MVFR
Wind Visibility
30° at 3 knots 6,003 meters
Clouds
  • Clear skies
Temperature Dewpoint
-2°C / 28°F -3°C / 27°F
Humidity Altimeter Pressure
93% 30.15" Hg 1021 hPa